Airfield :







YOU CAN JOIN US ON...

 
LOGIN :

Register | Disclaimer

   EN    FR    IT 

 









Legend :    VFR   Marginal VFR   IFR   Intensive IFR   Very Intensive IFR
Visi :
Ceiling :
>= 8 km
>= 3000ft
5 to 8 km
1000 to 3000 ft
1500m to 5 km
500 to 1000 ft
800 to 1500m
200 to 500 ft
< 800m
< 200 ft
Symbols :   Thunderstorms  Fog  Heavy snow  Heavy precipitations  Wind > 20 kt






- Airport Elevation : 180 ft
- IATA code : YZV


CYZV - Sept-Iles

CURRENT METAR :
  • 090400Z 35004KT 15SM FEW050 BKN082 BKN200 05/05 A2984 RMK SC2AC4CI1 CI TR SLP108

EXPIRED METARs :
  • 090300Z 12003KT 15SM FEW050 BKN080 BKN200 05/05 A2987 RMK SC2AC4CI1 CI TR SLP118
  • 090200Z 33003KT 15SM BKN050 BKN200 05/05 A2987 RMK SC5CI1 SLP120

TAF TAF CYZV
Valid from the 09 at 00:00 until the 10 at 00:00 UTC


082341Z 0900/0924 VRB03KT P6SM FEW015 BKN040
TEMPO 0900/0902 P6SM -SHRA BKN025
BECMG 0900/0902 36007KT
FM090200 03008KT P6SM BKN050
BECMG 0904/0906 36012KT
FM090900 36015KT P6SM BKN090
BECMG 0912/0914 36015G25KT
FM091600 36015G25KT P6SM -SHRA BKN040
FM092000 36015G25KT P6SM -SHRA BKN080 RMK NXT FCST BY 090600Z
CZUL FIR / North America



MET'MAP, your aeronautical weather chart ! - Copyright ORBIFLY December 2007 - Disclaimer

ORBIFLY MET'MAP TEAM :

Programming & Development : Alexandra Zaïnal
Concept & original design : Baudouin d'Aumeries
Assistance for programming : Marc-Olivier Méhu
Technical & hardware support : Manuel Goepfert

Contact : metmap@orbifly.com




SOURCES & CREDITS :

   NOAA